Time;durP1;ratioP1;P1;durP2;ratioP2;P2;SDS_P1;SDS_P2;PMS_P1;PMS_P2;Temp;Humidity;BMP_temperature;BMP_pressure;BME280_temperature;BME280_humidity;BME280_pressure;Samples;Min_cycle;Max_cycle;Signal;HPM_P1;HPM_P2
2020/12/12 00:00:27;;;;;;;11.05;6.70;;;;;;;3.75;nan;94363.84;4980681;28;20315;-70
2020/12/12 00:02:53;;;;;;;12.15;6.75;;;;;;;3.76;nan;94364.69;4980750;28;20496;-71
2020/12/12 00:05:21;;;;;;;12.25;6.65;;;;;;;3.71;nan;94354.75;4980425;28;20204;-69
2020/12/12 00:07:48;;;;;;;13.82;6.47;;;;;;;3.76;nan;94360.34;4981073;28;20589;-69
2020/12/12 00:10:15;;;;;;;12.57;7.55;;;;;;;3.78;nan;94361.09;4979934;28;20221;-71
2020/12/12 00:12:42;;;;;;;9.95;6.18;;;;;;;3.80;nan;94343.78;4980167;28;20298;-70
2020/12/12 00:15:09;;;;;;;12.18;6.53;;;;;;;3.84;nan;94352.94;4980397;28;20611;-69
2020/12/12 00:17:36;;;;;;;12.40;7.20;;;;;;;3.79;nan;94347.28;4979952;28;20566;-70
2020/12/12 00:20:03;;;;;;;11.70;6.55;;;;;;;3.80;nan;94333.50;4982994;28;20222;-71
2020/12/12 00:22:31;;;;;;;13.00;6.72;;;;;;;3.78;nan;94339.66;4979979;28;20198;-69
2020/12/12 00:25:09;;;;;;;10.15;6.07;;;;;;;3.81;nan;94336.91;4979716;28;20252;-70
2020/12/12 00:27:36;;;;;;;9.80;6.95;;;;;;;3.85;nan;94335.72;4980143;28;20288;-69
2020/12/12 00:30:04;;;;;;;11.32;7.13;;;;;;;3.79;nan;94336.16;4980341;28;20251;-69
2020/12/12 00:32:30;;;;;;;12.35;7.00;;;;;;;3.82;nan;94336.75;4980091;28;20520;-72
2020/12/12 00:34:57;;;;;;;11.65;7.40;;;;;;;3.83;nan;94343.53;4979749;28;20320;-71
2020/12/12 00:37:24;;;;;;;12.57;6.88;;;;;;;3.89;nan;94340.53;4980203;28;20695;-70
2020/12/12 00:39:52;;;;;;;12.27;7.50;;;;;;;3.94;nan;94341.03;4976055;28;20549;-70
2020/12/12 00:42:19;;;;;;;12.05;7.18;;;;;;;3.92;nan;94340.34;4980081;28;20633;-71
2020/12/12 00:44:47;;;;;;;12.32;6.82;;;;;;;3.94;nan;94341.03;4979409;28;20240;-70
2020/12/12 00:47:14;;;;;;;15.35;7.25;;;;;;;3.90;nan;94339.59;4980193;28;20640;-71
2020/12/12 00:49:41;;;;;;;12.05;6.75;;;;;;;3.91;nan;94346.41;4980002;28;20229;-70
2020/12/12 00:52:08;;;;;;;11.68;6.88;;;;;;;3.90;nan;94337.03;4979602;28;20309;-70
2020/12/12 00:54:35;;;;;;;10.65;6.80;;;;;;;3.96;nan;94339.16;4976439;28;20314;-73
2020/12/12 00:57:03;;;;;;;13.07;6.82;;;;;;;3.98;nan;94337.28;4981122;28;20220;-70
2020/12/12 00:59:29;;;;;;;10.27;6.15;;;;;;;3.97;nan;94340.00;4979234;28;20683;-70
2020/12/12 01:01:56;;;;;;;13.38;7.07;;;;;;;3.94;nan;94338.47;4979897;28;20499;-71
2020/12/12 01:04:23;;;;;;;12.52;6.75;;;;;;;3.94;nan;94335.88;4979662;28;20256;-69
2020/12/12 01:06:50;;;;;;;14.30;8.63;;;;;;;3.99;nan;94341.53;4975512;28;20280;-69
2020/12/12 01:09:17;;;;;;;16.60;6.70;;;;;;;3.93;nan;94340.19;4979427;28;20871;-70
2020/12/12 01:11:44;;;;;;;12.32;6.55;;;;;;;3.94;nan;94341.03;4979594;28;20279;-71
2020/12/12 01:14:12;;;;;;;11.50;6.15;;;;;;;3.97;nan;94348.53;4979234;28;20221;-73
2020/12/12 01:16:38;;;;;;;10.25;6.03;;;;;;;3.99;nan;94344.09;4980613;28;20204;-71
2020/12/12 01:19:05;;;;;;;15.55;7.38;;;;;;;3.99;nan;94347.47;4979379;28;20254;-70
2020/12/12 01:21:32;;;;;;;14.18;8.07;;;;;;;3.98;nan;94340.69;4982118;28;20285;-70
2020/12/12 01:23:59;;;;;;;14.35;7.57;;;;;;;3.98;nan;94348.41;4978529;28;20259;-70
2020/12/12 01:26:26;;;;;;;12.18;7.03;;;;;;;3.92;nan;94354.00;4978947;28;20276;-71
2020/12/12 01:28:52;;;;;;;11.70;7.18;;;;;;;3.95;nan;94347.00;4980270;28;20222;-70
2020/12/12 01:31:20;;;;;;;12.70;7.63;;;;;;;4.03;nan;94355.81;4979205;28;20533;-72
2020/12/12 01:33:47;;;;;;;15.43;7.85;;;;;;;4.13;nan;94351.66;4978731;28;20223;-69
2020/12/12 01:36:14;;;;;;;13.05;7.55;;;;;;;4.18;nan;94355.50;4979140;28;20202;-69
2020/12/12 01:38:41;;;;;;;11.23;6.25;;;;;;;4.19;nan;94356.31;4978747;28;20226;-70
2020/12/12 01:41:08;;;;;;;13.57;7.20;;;;;;;4.24;nan;94354.22;4979066;28;20256;-69
2020/12/12 01:43:35;;;;;;;11.30;6.82;;;;;;;4.25;nan;94350.72;4976664;28;20814;-71
2020/12/12 01:46:01;;;;;;;13.48;6.72;;;;;;;4.31;nan;94358.00;4979208;28;20197;-70
2020/12/12 01:48:29;;;;;;;12.30;7.60;;;;;;;4.34;nan;94355.19;4979155;28;20771;-70
2020/12/12 01:50:57;;;;;;;13.20;8.07;;;;;;;4.39;nan;94350.53;4978702;28;20887;-73
2020/12/12 01:53:27;;;;;;;12.55;6.72;;;;;;;4.44;nan;94361.31;4976906;28;20228;-71
2020/12/12 01:55:54;;;;;;;12.57;7.30;;;;;;;4.47;nan;94354.19;4975019;28;20298;-70
2020/12/12 01:58:21;;;;;;;10.70;6.95;;;;;;;4.60;nan;94357.50;4978805;28;20307;-73
2020/12/12 02:00:48;;;;;;;10.23;6.00;;;;;;;4.67;nan;94350.13;4977566;28;20687;-73
2020/12/12 02:03:16;;;;;;;12.88;7.15;;;;;;;4.70;nan;94352.44;4977844;28;20218;-70
2020/12/12 02:05:45;;;;;;;11.77;6.88;;;;;;;4.78;nan;94352.69;4978554;28;20674;-70
2020/12/12 02:08:13;;;;;;;12.63;6.47;;;;;;;4.84;nan;94341.91;4978064;28;20354;-72
2020/12/12 02:10:43;;;;;;;10.57;6.30;;;;;;;4.63;nan;94348.69;4977601;28;20194;-70
2020/12/12 02:13:11;;;;;;;15.07;6.80;;;;;;;4.62;nan;94349.63;4977092;28;20220;-70
2020/12/12 02:15:39;;;;;;;12.07;6.95;;;;;;;4.53;nan;94348.59;4978353;28;20574;-70
2020/12/12 02:18:07;;;;;;;11.43;6.25;;;;;;;4.60;nan;94346.34;4978714;28;20193;-70
2020/12/12 02:20:34;;;;;;;15.95;7.72;;;;;;;4.75;nan;94345.19;4980673;28;20631;-68
2020/12/12 02:23:02;;;;;;;12.07;7.55;;;;;;;4.76;nan;94354.56;4976779;28;20593;-70
2020/12/12 02:25:29;;;;;;;13.70;8.05;;;;;;;4.72;nan;94358.34;4977936;28;20701;-69
2020/12/12 02:27:57;;;;;;;15.02;7.88;;;;;;;4.71;nan;94356.66;4978454;28;20745;-70
2020/12/12 02:30:24;;;;;;;16.15;7.50;;;;;;;4.43;nan;94352.75;4977014;28;20198;-70
2020/12/12 02:32:51;;;;;;;11.63;6.85;;;;;;;4.34;nan;94360.34;4974313;28;20654;-70
2020/12/12 02:35:18;;;;;;;10.48;7.20;;;;;;;4.24;nan;94361.97;4977393;28;20224;-70
2020/12/12 02:37:45;;;;;;;11.98;6.93;;;;;;;4.21;nan;94354.47;4977783;28;20287;-70
2020/12/12 02:40:12;;;;;;;14.57;7.78;;;;;;;4.16;nan;94356.56;4977169;28;20574;-69
2020/12/12 02:42:39;;;;;;;14.82;7.72;;;;;;;4.09;nan;94352.78;4977154;28;20677;-69
2020/12/12 02:45:06;;;;;;;14.60;7.43;;;;;;;4.10;nan;94351.84;4975728;28;20634;-70
2020/12/12 02:47:34;;;;;;;11.23;6.75;;;;;;;4.10;nan;94351.84;4976610;28;20201;-68
2020/12/12 02:50:08;;;;;;;13.13;7.35;;;;;;;4.12;nan;94353.38;4975713;28;20217;-69
2020/12/12 02:52:35;;;;;;;15.52;8.07;;;;;;;4.08;nan;94348.56;4974759;28;20665;-71
2020/12/12 02:55:03;;;;;;;13.05;7.55;;;;;;;4.09;nan;94345.06;4976452;28;20218;-70
2020/12/12 02:57:31;;;;;;;14.15;7.50;;;;;;;4.13;nan;94341.34;4977367;28;20204;-70
2020/12/12 02:59:58;;;;;;;13.05;6.65;;;;;;;4.20;nan;94339.94;4977242;28;20696;-69
2020/12/12 03:02:25;;;;;;;14.07;7.25;;;;;;;4.21;nan;94344.19;4976671;28;20703;-68
2020/12/12 03:04:52;;;;;;;12.63;6.93;;;;;;;4.22;nan;94351.75;4977321;28;20714;-69
2020/12/12 03:07:19;;;;;;;12.60;8.35;;;;;;;4.21;nan;94354.47;4976029;28;20248;-69
2020/12/12 03:09:46;;;;;;;16.60;8.05;;;;;;;4.23;nan;94355.97;4975925;28;20316;-70
2020/12/12 03:12:14;;;;;;;15.88;7.25;;;;;;;4.19;nan;94353.75;4976220;28;20280;-69
2020/12/12 03:14:42;;;;;;;13.30;7.47;;;;;;;4.19;nan;94356.31;4976142;28;20316;-70
2020/12/12 03:17:09;;;;;;;14.05;7.65;;;;;;;4.12;nan;94350.81;4977106;28;20294;-70
2020/12/12 03:19:37;;;;;;;14.13;8.32;;;;;;;4.10;nan;94352.69;4975952;28;20225;-69
2020/12/12 03:22:04;;;;;;;14.85;7.20;;;;;;;4.07;nan;94352.09;4980289;28;20706;-71
2020/12/12 03:24:30;;;;;;;18.83;8.40;;;;;;;4.08;nan;94353.72;4975732;28;20244;-70
2020/12/12 03:26:57;;;;;;;17.98;8.07;;;;;;;4.12;nan;94362.84;4977511;28;20193;-69
2020/12/12 03:29:24;;;;;;;13.20;6.75;;;;;;;4.09;nan;94351.03;4977901;28;20225;-70
2020/12/12 03:31:52;;;;;;;14.30;8.57;;;;;;;4.06;nan;94353.03;4972977;28;20281;-70
2020/12/12 03:34:19;;;;;;;14.20;8.02;;;;;;;4.11;nan;94356.91;4977428;28;20613;-70
2020/12/12 03:36:46;;;;;;;17.80;9.90;;;;;;;4.10;nan;94357.84;4978121;28;20721;-69
2020/12/12 03:39:13;;;;;;;17.48;10.40;;;;;;;3.98;nan;94352.72;4976701;28;20678;-69
2020/12/12 03:41:40;;;;;;;15.88;8.30;;;;;;;3.99;nan;94357.78;4977317;28;20512;-72
2020/12/12 03:44:06;;;;;;;19.08;9.20;;;;;;;4.01;nan;94367.97;4977528;28;20556;-70
2020/12/12 03:46:33;;;;;;;17.45;10.10;;;;;;;3.97;nan;94357.06;4977733;28;20284;-71
2020/12/12 03:49:01;;;;;;;15.65;7.95;;;;;;;3.95;nan;94362.47;4977103;28;20219;-70
2020/12/12 03:51:28;;;;;;;16.45;8.18;;;;;;;3.95;nan;94365.03;4977534;28;20767;-70
2020/12/12 03:53:55;;;;;;;15.90;9.23;;;;;;;3.90;nan;94365.34;4976752;28;20624;-70
2020/12/12 03:56:22;;;;;;;14.57;8.48;;;;;;;3.93;nan;94370.28;4977000;28;20193;-71
2020/12/12 03:58:48;;;;;;;18.85;10.02;;;;;;;3.88;nan;94356.91;4976685;28;20252;-69
2020/12/12 04:01:15;;;;;;;15.75;8.50;;;;;;;3.92;nan;94359.16;4977414;28;20224;-69
2020/12/12 04:03:42;;;;;;;19.70;10.85;;;;;;;3.94;nan;94371.91;4976203;28;20759;-69
2020/12/12 04:06:10;;;;;;;14.15;9.30;;;;;;;3.94;nan;94359.03;4977540;28;20198;-70
2020/12/12 04:08:37;;;;;;;17.33;9.57;;;;;;;3.92;nan;94366.88;4976644;28;20682;-69
2020/12/12 04:11:04;;;;;;;17.90;9.65;;;;;;;3.92;nan;94366.06;4977428;28;20320;-69
2020/12/12 04:13:31;;;;;;;16.98;10.13;;;;;;;3.92;nan;94359.16;4975769;28;20841;-70
2020/12/12 04:15:58;;;;;;;19.23;9.85;;;;;;;3.95;nan;94367.59;4976108;28;20652;-72
2020/12/12 04:18:24;;;;;;;17.38;10.07;;;;;;;3.95;nan;94376.13;4976556;28;20229;-70
2020/12/12 04:20:51;;;;;;;18.98;9.57;;;;;;;3.95;nan;94373.53;4975706;28;20280;-69
2020/12/12 04:23:19;;;;;;;17.73;9.63;;;;;;;3.98;nan;94383.59;4976631;28;20670;-70
2020/12/12 04:25:45;;;;;;;20.65;10.98;;;;;;;3.94;nan;94377.06;4977106;28;20292;-70
2020/12/12 04:28:12;;;;;;;17.27;9.98;;;;;;;3.91;nan;94374.72;4977111;28;20232;-71
2020/12/12 04:30:39;;;;;;;22.70;12.30;;;;;;;3.95;nan;94372.75;4976341;28;20236;-69
2020/12/12 04:33:06;;;;;;;19.60;9.45;;;;;;;3.99;nan;94375.78;4975565;28;20510;-69
2020/12/12 04:35:33;;;;;;;17.73;9.73;;;;;;;4.02;nan;94377.31;4975790;28;20308;-70
2020/12/12 04:37:59;;;;;;;23.58;11.57;;;;;;;4.03;nan;94381.53;4979277;28;20228;-71
2020/12/12 04:40:29;;;;;;;18.50;10.70;;;;;;;4.06;nan;94373.63;4980245;28;20206;-71
2020/12/12 04:42:57;;;;;;;19.40;11.68;;;;;;;4.05;nan;94379.66;4979580;28;20747;-71
2020/12/12 04:45:25;;;;;;;21.25;11.48;;;;;;;4.07;nan;94383.78;4978772;28;20307;-69
2020/12/12 04:47:52;;;;;;;18.27;9.65;;;;;;;4.09;nan;94381.94;4975632;28;20198;-70
2020/12/12 04:50:28;;;;;;;20.70;11.27;;;;;;;4.10;nan;94383.56;4979699;28;20534;-72
2020/12/12 04:52:57;;;;;;;16.35;10.13;;;;;;;4.14;nan;94384.16;4978916;28;20795;-70
2020/12/12 04:55:25;;;;;;;18.95;10.23;;;;;;;4.16;nan;94387.44;4978535;28;20193;-70
2020/12/12 04:57:54;;;;;;;19.95;10.20;;;;;;;4.19;nan;94384.63;4975625;28;20688;-71
2020/12/12 05:00:21;;;;;;;20.25;9.60;;;;;;;4.19;nan;94388.03;4979427;28;20202;-70
2020/12/12 05:02:48;;;;;;;17.98;9.63;;;;;;;4.09;nan;94383.66;4979055;28;20715;-70
2020/12/12 05:05:15;;;;;;;19.80;10.70;;;;;;;4.08;nan;94390.56;4979046;28;20280;-71
2020/12/12 05:07:42;;;;;;;17.83;10.20;;;;;;;4.06;nan;94387.28;4979826;28;20679;-73
2020/12/12 05:10:09;;;;;;;21.30;10.27;;;;;;;4.04;nan;94390.88;4979289;28;20255;-70
2020/12/12 05:12:36;;;;;;;20.25;11.02;;;;;;;3.99;nan;94393.00;4977314;28;20304;-69
2020/12/12 05:15:04;;;;;;;21.35;10.07;;;;;;;4.01;nan;94391.13;4978773;28;20236;-69
2020/12/12 05:17:31;;;;;;;15.07;7.93;;;;;;;3.99;nan;94385.28;4978469;28;20841;-69
2020/12/12 05:19:58;;;;;;;17.77;9.15;;;;;;;3.97;nan;94397.41;4981556;28;20711;-69
2020/12/12 05:22:26;;;;;;;16.83;9.98;;;;;;;3.95;nan;94395.91;4978613;28;20277;-70
2020/12/12 05:24:53;;;;;;;19.25;10.60;;;;;;;3.93;nan;94391.66;4978437;28;20276;-70
2020/12/12 05:27:20;;;;;;;23.05;11.35;;;;;;;3.92;nan;94391.78;4979657;28;20707;-70
2020/12/12 05:29:46;;;;;;;19.33;9.40;;;;;;;3.93;nan;94401.16;4978388;28;20227;-69
2020/12/12 05:32:14;;;;;;;20.38;11.00;;;;;;;3.82;nan;94380.50;4978430;28;20608;-70
2020/12/12 05:34:41;;;;;;;18.25;10.27;;;;;;;3.96;nan;94403.50;4978205;28;20638;-70
2020/12/12 05:37:08;;;;;;;18.30;9.88;;;;;;;3.97;nan;94395.66;4978699;28;20515;-71
2020/12/12 05:39:35;;;;;;;21.38;10.63;;;;;;;3.98;nan;94396.47;4977109;28;20316;-70
2020/12/12 05:42:02;;;;;;;19.30;10.43;;;;;;;3.95;nan;94393.34;4978218;28;20293;-69
2020/12/12 05:44:31;;;;;;;16.35;9.50;;;;;;;3.94;nan;94397.63;4978329;28;20319;-69
2020/12/12 05:47:00;;;;;;;20.17;9.70;;;;;;;3.88;nan;94403.22;4978501;28;20612;-69
2020/12/12 05:49:28;;;;;;;18.35;10.15;;;;;;;3.93;nan;94396.00;4976908;28;20728;-69
2020/12/12 05:51:56;;;;;;;18.55;10.68;;;;;;;3.99;nan;94403.28;4978803;28;20235;-69
2020/12/12 05:54:23;;;;;;;22.90;12.13;;;;;;;4.03;nan;94411.59;4976113;28;20218;-69
2020/12/12 05:56:50;;;;;;;18.45;10.75;;;;;;;4.07;nan;94408.69;4974786;28;20503;-70
2020/12/12 05:59:17;;;;;;;19.83;10.50;;;;;;;4.05;nan;94408.81;4977987;28;20683;-71
2020/12/12 06:01:54;;;;;;;18.23;10.32;;;;;;;4.04;nan;94411.47;4978200;28;20252;-69
2020/12/12 06:04:25;;;;;;;18.55;9.98;;;;;;;4.07;nan;94409.50;4977638;28;20312;-71
2020/12/12 06:06:57;;;;;;;16.73;9.48;;;;;;;4.03;nan;94416.75;4975029;28;20596;-69
2020/12/12 06:09:36;;;;;;;17.20;10.02;;;;;;;4.03;nan;94413.25;4976881;28;20655;-70
2020/12/12 06:12:04;;;;;;;19.70;11.00;;;;;;;4.08;nan;94418.88;4975213;28;20284;-75
2020/12/12 06:14:36;;;;;;;16.15;9.20;;;;;;;4.07;nan;94421.56;4977552;28;20527;-70
2020/12/12 06:17:07;;;;;;;17.08;10.45;;;;;;;4.10;nan;94418.75;4978137;28;20210;-72
2020/12/12 06:19:38;;;;;;;17.50;10.07;;;;;;;4.13;nan;94424.50;4978143;28;20221;-70
2020/12/12 06:22:06;;;;;;;18.67;10.75;;;;;;;4.23;nan;94422.09;4976191;28;20229;-69
2020/12/12 06:24:34;;;;;;;19.85;10.38;;;;;;;4.27;nan;94426.91;4976969;28;20229;-71
2020/12/12 06:27:05;;;;;;;18.17;10.20;;;;;;;4.34;nan;94419.56;4977924;28;20198;-69
2020/12/12 06:29:39;;;;;;;17.55;10.10;;;;;;;4.36;nan;94431.38;4977061;28;20722;-69
2020/12/12 06:32:13;;;;;;;18.85;11.23;;;;;;;4.32;nan;94426.56;4978045;28;20782;-69
2020/12/12 06:34:41;;;;;;;21.00;10.30;;;;;;;4.30;nan;94431.03;4977235;28;20232;-68
2020/12/12 06:37:24;;;;;;;16.17;10.05;;;;;;;4.40;nan;94432.81;4977545;28;20594;-69
2020/12/12 06:39:51;;;;;;;16.08;9.18;;;;;;;4.54;nan;94440.38;4972917;28;20528;-69
2020/12/12 06:42:32;;;;;;;21.02;10.18;;;;;;;4.75;nan;94437.94;4977493;28;20205;-69
2020/12/12 06:45:00;;;;;;;17.40;10.25;;;;;;;4.72;nan;94433.03;4977107;28;20607;-69
2020/12/12 06:47:38;;;;;;;18.52;10.35;;;;;;;4.71;nan;94442.50;4977484;28;20508;-69
2020/12/12 06:50:10;;;;;;;17.60;9.88;;;;;;;4.60;nan;94439.91;4976739;28;20755;-69
2020/12/12 06:52:38;;;;;;;19.25;10.13;;;;;;;4.44;nan;94449.69;4977104;28;20845;-69
2020/12/12 06:55:07;;;;;;;17.02;9.52;;;;;;;4.26;nan;94450.19;4976296;28;20293;-69
2020/12/12 06:57:39;;;;;;;21.00;10.73;;;;;;;4.31;nan;94450.69;4976764;28;20190;-68
2020/12/12 07:00:09;;;;;;;19.38;10.05;;;;;;;4.36;nan;94458.91;4976295;28;20311;-69
2020/12/12 07:02:35;;;;;;;17.25;10.40;;;;;;;4.34;nan;94464.16;4975098;28;20229;-68
2020/12/12 07:05:18;;;;;;;16.10;9.85;;;;;;;4.23;nan;94465.88;4977020;28;20713;-68
2020/12/12 07:07:46;;;;;;;17.23;9.38;;;;;;;4.14;nan;94467.34;4976908;28;20666;-68
2020/12/12 07:10:13;;;;;;;22.83;11.00;;;;;;;4.13;nan;94470.03;4976329;28;20260;-68
2020/12/12 07:12:40;;;;;;;18.27;9.30;;;;;;;3.98;nan;94451.34;4976684;28;20668;-68
2020/12/12 07:15:07;;;;;;;23.23;12.57;;;;;;;4.13;nan;94472.59;4977060;28;20539;-73
2020/12/12 07:17:34;;;;;;;18.42;11.10;;;;;;;4.12;nan;94474.34;4977896;28;20740;-71
2020/12/12 07:20:02;;;;;;;19.70;10.73;;;;;;;4.13;nan;94480.34;4979560;28;20215;-68
2020/12/12 07:22:29;;;;;;;19.02;10.98;;;;;;;4.17;nan;94481.75;4976785;28;20317;-68
2020/12/12 07:24:59;;;;;;;17.75;10.00;;;;;;;4.23;nan;94484.69;4978167;28;20553;-68
2020/12/12 07:27:26;;;;;;;15.40;9.82;;;;;;;4.31;nan;94494.44;4978542;28;20196;-68
2020/12/12 07:29:52;;;;;;;17.17;10.30;;;;;;;4.35;nan;94495.88;4976458;28;20307;-68
2020/12/12 07:32:19;;;;;;;16.38;10.13;;;;;;;4.36;nan;94497.53;4975621;28;20282;-68
2020/12/12 07:34:47;;;;;;;19.80;11.23;;;;;;;4.31;nan;94502.19;4976198;28;20252;-68
2020/12/12 07:37:13;;;;;;;18.52;10.10;;;;;;;4.22;nan;94506.22;4976738;28;20660;-68
2020/12/12 07:39:42;;;;;;;17.65;10.65;;;;;;;4.10;nan;94483.94;4976330;28;20680;-68
2020/12/12 07:42:10;;;;;;;16.38;9.35;;;;;;;4.26;nan;94512.81;4977271;28;20288;-68
2020/12/12 07:44:39;;;;;;;17.75;10.75;;;;;;;4.20;nan;94518.38;4974956;28;20260;-68
2020/12/12 07:47:09;;;;;;;19.52;9.68;;;;;;;4.22;nan;94516.50;4976002;28;20603;-68
2020/12/12 07:49:37;;;;;;;16.30;9.13;;;;;;;4.18;nan;94519.41;4974191;28;20507;-69
2020/12/12 07:52:06;;;;;;;18.75;10.25;;;;;;;4.19;nan;94515.91;4976461;28;20291;-68
2020/12/12 07:54:36;;;;;;;18.55;10.68;;;;;;;4.30;nan;94519.38;4975550;28;20304;-68
2020/12/12 07:57:07;;;;;;;21.20;10.00;;;;;;;4.30;nan;94528.84;4976749;28;20216;-69
2020/12/12 07:59:35;;;;;;;18.95;10.18;;;;;;;4.40;nan;94532.41;4975981;28;20801;-68
2020/12/12 08:02:03;;;;;;;15.88;9.35;;;;;;;4.31;nan;94536.47;4976433;28;20612;-68
2020/12/12 08:04:31;;;;;;;14.68;8.95;;;;;;;4.23;nan;94515.56;4975771;28;20316;-69
2020/12/12 08:07:02;;;;;;;18.48;9.70;;;;;;;4.49;nan;94545.47;4976491;28;20775;-68
2020/12/12 08:09:29;;;;;;;18.55;10.57;;;;;;;4.54;nan;94545.13;4976194;28;20312;-73
2020/12/12 08:11:57;;;;;;;18.95;10.82;;;;;;;4.69;nan;94544.03;4978921;28;20600;-68
2020/12/12 08:14:25;;;;;;;17.27;9.63;;;;;;;4.63;nan;94552.19;4981517;28;20335;-68
2020/12/12 08:16:56;;;;;;;18.27;9.90;;;;;;;4.56;nan;94548.41;4975270;28;20620;-68
2020/12/12 08:19:23;;;;;;;16.58;9.63;;;;;;;4.55;nan;94557.91;4978636;28;20312;-73
2020/12/12 08:21:52;;;;;;;17.30;10.07;;;;;;;4.60;nan;94558.41;4983013;28;20232;-70
2020/12/12 08:24:19;;;;;;;16.40;9.88;;;;;;;4.65;nan;94560.66;4979338;28;20259;-70
2020/12/12 08:26:46;;;;;;;16.33;8.77;;;;;;;4.63;nan;94555.59;4980425;28;20824;-68
2020/12/12 08:29:14;;;;;;;12.80;8.00;;;;;;;4.73;nan;94563.50;4981994;28;20615;-68
2020/12/12 08:31:47;;;;;;;15.80;9.05;;;;;;;4.74;nan;94560.78;4980832;28;20225;-70
2020/12/12 08:34:20;;;;;;;17.88;10.23;;;;;;;4.89;nan;94564.03;4979182;28;20224;-72
2020/12/12 08:36:47;;;;;;;15.65;9.15;;;;;;;5.01;nan;94573.47;4979785;28;20197;-70
2020/12/12 08:39:14;;;;;;;15.50;8.27;;;;;;;5.12;nan;94581.22;4979685;28;20260;-70
2020/12/12 08:41:42;;;;;;;16.30;8.88;;;;;;;5.11;nan;94571.84;4981001;28;20588;-71
2020/12/12 08:44:22;;;;;;;15.45;8.95;;;;;;;4.95;nan;94581.63;4978801;28;20251;-68
2020/12/12 08:46:52;;;;;;;16.90;9.82;;;;;;;4.95;nan;94574.69;4979610;28;20296;-71
2020/12/12 08:49:20;;;;;;;18.23;10.63;;;;;;;4.96;nan;94585.84;4979171;28;20253;-68
2020/12/12 08:51:51;;;;;;;14.75;8.75;;;;;;;5.02;nan;94583.63;4979376;28;20745;-68
2020/12/12 08:54:18;;;;;;;17.73;9.85;;;;;;;4.96;nan;94585.84;4978293;28;20221;-68
2020/12/12 08:56:45;;;;;;;16.02;8.75;;;;;;;4.86;nan;94590.84;4979710;28;20190;-68
2020/12/12 08:59:19;;;;;;;17.42;10.30;;;;;;;4.87;nan;94591.66;4978739;28;20703;-68
2020/12/12 09:01:46;;;;;;;16.08;8.50;;;;;;;4.91;nan;94595.66;4979180;28;20288;-68
2020/12/12 09:04:21;;;;;;;12.98;7.65;;;;;;;4.88;nan;94598.47;4978629;28;20229;-68
2020/12/12 09:06:52;;;;;;;13.25;6.97;;;;;;;5.01;nan;94602.63;4979096;28;20197;-68
2020/12/12 09:09:20;;;;;;;13.80;7.28;;;;;;;5.09;nan;94607.22;4978907;28;20756;-68
2020/12/12 09:11:53;;;;;;;11.23;7.30;;;;;;;5.10;nan;94614.03;4979044;28;20197;-69
2020/12/12 09:14:20;;;;;;;16.88;7.00;;;;;;;5.17;nan;94621.19;4978371;28;20236;-68
2020/12/12 09:16:48;;;;;;;12.77;7.80;;;;;;;5.29;nan;94624.63;4979335;28;20285;-69
2020/12/12 09:19:15;;;;;;;17.77;6.78;;;;;;;5.36;nan;94626.66;4979027;28;20312;-72
2020/12/12 09:21:42;;;;;;;13.00;8.70;;;;;;;5.31;nan;94630.53;4981982;28;20700;-72
2020/12/12 09:24:10;;;;;;;14.20;7.43;;;;;;;5.18;nan;94627.19;4978060;28;20679;-72
2020/12/12 09:26:37;;;;;;;12.73;8.30;;;;;;;5.14;nan;94636.06;4976509;28;20229;-73
2020/12/12 09:29:04;;;;;;;12.05;7.47;;;;;;;5.12;nan;94636.19;4979664;28;20236;-73
2020/12/12 09:31:31;;;;;;;14.02;7.38;;;;;;;5.14;nan;94636.88;4978351;28;20237;-73
2020/12/12 09:33:58;;;;;;;15.48;8.18;;;;;;;5.22;nan;94644.91;4977771;28;20233;-73
2020/12/12 09:36:25;;;;;;;11.90;7.13;;;;;;;5.29;nan;94653.81;4979184;28;20584;-73
2020/12/12 09:38:52;;;;;;;9.68;6.20;;;;;;;5.22;nan;94649.22;4978066;28;20304;-72
2020/12/12 09:41:20;;;;;;;11.18;6.88;;;;;;;5.23;nan;94656.84;4978235;28;20616;-71
2020/12/12 09:43:47;;;;;;;13.10;7.45;;;;;;;5.22;nan;94660.38;4978484;28;20592;-71
2020/12/12 09:46:18;;;;;;;12.18;7.03;;;;;;;5.33;nan;94657.00;4978884;28;20509;-71
2020/12/12 09:48:46;;;;;;;10.80;6.38;;;;;;;5.33;nan;94657.84;4977528;28;20613;-71
2020/12/12 09:51:14;;;;;;;9.80;6.35;;;;;;;5.45;nan;94667.25;4979513;28;20580;-71
2020/12/12 09:53:41;;;;;;;12.48;6.78;;;;;;;5.46;nan;94662.94;4977288;28;20313;-72
2020/12/12 09:56:10;;;;;;;10.73;6.32;;;;;;;5.54;nan;94665.75;4978174;28;20712;-71
2020/12/12 09:58:38;;;;;;;23.25;7.57;;;;;;;5.65;nan;94674.34;4976990;28;20229;-71
2020/12/12 10:01:09;;;;;;;11.18;6.80;;;;;;;5.85;nan;94670.31;4978018;28;20205;-71
2020/12/12 10:03:36;;;;;;;11.20;6.05;;;;;;;5.91;nan;94680.19;4975660;28;20617;-71
2020/12/12 10:06:06;;;;;;;8.80;5.43;;;;;;;5.86;nan;94671.97;4978694;28;20206;-71
2020/12/12 10:08:33;;;;;;;8.63;5.40;;;;;;;5.99;nan;94677.88;4977083;28;20822;-71
2020/12/12 10:10:59;;;;;;;11.27;6.18;;;;;;;5.90;nan;94679.38;4977861;28;20671;-71
2020/12/12 10:13:26;;;;;;;10.52;6.35;;;;;;;5.95;nan;94681.59;4977058;28;20230;-71
2020/12/12 10:15:54;;;;;;;10.50;5.97;;;;;;;5.94;nan;94688.53;4984083;28;20220;-72
2020/12/12 10:18:21;;;;;;;7.60;5.00;;;;;;;5.96;nan;94694.41;4977342;28;20225;-71
2020/12/12 10:20:48;;;;;;;11.18;6.35;;;;;;;5.90;nan;94694.06;4978759;28;20591;-71
2020/12/12 10:23:14;;;;;;;8.77;5.38;;;;;;;5.83;nan;94687.69;4976972;28;20336;-71
2020/12/12 10:25:41;;;;;;;11.93;5.75;;;;;;;5.92;nan;94689.59;4977751;28;20317;-73
2020/12/12 10:28:10;;;;;;;10.20;6.40;;;;;;;5.84;nan;94691.91;4978214;28;20205;-71
2020/12/12 10:30:37;;;;;;;11.13;6.50;;;;;;;5.80;nan;94693.06;4974778;28;20202;-71
2020/12/12 10:33:05;;;;;;;13.23;6.93;;;;;;;5.88;nan;94696.72;4975856;28;20206;-71
2020/12/12 10:35:32;;;;;;;11.05;5.85;;;;;;;5.95;nan;94694.50;4976497;28;20561;-73
2020/12/12 10:37:58;;;;;;;11.40;6.20;;;;;;;6.03;nan;94689.63;4977946;28;20240;-71
2020/12/12 10:40:30;;;;;;;12.10;7.40;;;;;;;6.09;nan;94699.47;4976914;28;20280;-71
2020/12/12 10:42:57;;;;;;;14.48;7.30;;;;;;;6.15;nan;94701.59;4974144;28;20226;-70
2020/12/12 10:45:24;;;;;;;15.52;8.25;;;;;;;6.30;nan;94703.03;4975808;28;20297;-71
2020/12/12 10:47:51;;;;;;;11.60;6.72;;;;;;;6.24;nan;94706.91;4972525;28;20305;-72
2020/12/12 10:50:19;;;;;;;15.15;7.78;;;;;;;6.19;nan;94690.91;4976555;28;20575;-71
2020/12/12 10:52:46;;;;;;;15.20;7.97;;;;;;;6.31;nan;94705.50;4977934;28;20597;-70
2020/12/12 10:55:12;;;;;;;12.73;6.50;;;;;;;6.09;nan;94705.47;4975316;28;20308;-73
2020/12/12 10:57:39;;;;;;;12.45;7.28;;;;;;;6.05;nan;94703.22;4977045;28;20576;-72
2020/12/12 11:00:07;;;;;;;11.77;6.57;;;;;;;6.06;nan;94710.03;4975897;28;20281;-71
2020/12/12 11:02:34;;;;;;;12.50;6.95;;;;;;;6.03;nan;94707.69;4975826;28;20304;-71
2020/12/12 11:05:02;;;;;;;14.43;6.47;;;;;;;6.03;nan;94702.53;4976005;28;20312;-73
2020/12/12 11:07:33;;;;;;;10.32;6.25;;;;;;;6.02;nan;94709.44;4976092;28;20212;-70
2020/12/12 11:10:00;;;;;;;17.52;8.38;;;;;;;5.97;nan;94711.53;4977430;28;20570;-70
2020/12/12 11:12:26;;;;;;;11.73;6.30;;;;;;;5.92;nan;94721.41;4976295;28;20300;-74
2020/12/12 11:14:55;;;;;;;13.55;7.70;;;;;;;6.03;nan;94712.88;4976097;28;20320;-74
2020/12/12 11:17:22;;;;;;;15.05;7.25;;;;;;;6.07;nan;94717.69;4976178;28;20317;-71
2020/12/12 11:19:49;;;;;;;12.00;6.75;;;;;;;6.08;nan;94708.16;4977777;28;20726;-71
2020/12/12 11:22:16;;;;;;;9.82;6.20;;;;;;;6.21;nan;94714.88;4978912;28;20251;-72
2020/12/12 11:24:45;;;;;;;10.18;5.43;;;;;;;6.15;nan;94715.34;4979878;28;20313;-71
2020/12/12 11:27:12;;;;;;;9.07;5.38;;;;;;;6.17;nan;94712.63;4987166;28;20205;-74
2020/12/12 11:29:39;;;;;;;18.73;7.28;;;;;;;6.22;nan;94700.19;4987220;28;20699;-73
2020/12/12 11:32:12;;;;;;;18.92;8.00;;;;;;;6.28;nan;94707.50;4985306;28;20211;-72
2020/12/12 11:34:42;;;;;;;15.75;6.45;;;;;;;6.42;nan;94723.56;4983129;28;20659;-74
2020/12/12 11:40:12;;;;;;;8.82;5.18;;;;;;;6.47;nan;94724.06;4983958;28;20232;-73
2020/12/12 11:48:20;;;;;;;8.43;4.90;;;;;;;6.68;nan;94729.34;4980032;28;20303;-72
2020/12/12 11:50:47;;;;;;;9.60;5.43;;;;;;;6.67;nan;94727.69;4979879;28;20236;-72
2020/12/12 11:53:13;;;;;;;8.98;6.18;;;;;;;6.56;nan;94720.75;4979328;28;20885;-72
2020/12/12 11:55:41;;;;;;;12.98;7.38;;;;;;;6.56;nan;94738.84;4979670;28;20723;-72
2020/12/12 11:58:08;;;;;;;7.10;4.75;;;;;;;6.49;nan;94740.25;4979911;28;20501;-73
2020/12/12 12:00:35;;;;;;;10.40;6.00;;;;;;;6.60;nan;94747.19;4979626;28;20616;-71